Golden Dolphin — WYZ5247 — position and weather

sailwx.info

Track history (hours):
 
Tides and Currents Weather Stations Pressure Air Temp Water Temp Dewpoint Dewpoint Depression Visibility Wind Speed Wind Dir Waves Ship Positions

Oceanographic research ship Golden Dolphin (USA)

Owner: ROSS LABORATORIES INC, SEATTLE, WA. More information available from US FCC via Universal Licensing System and Coast Guard Vessel Documentation Center.

Last reported at 2019-Oct-03 23:03 UTC. Time now 2019-Oct-17 15:09 UTC.
Position N 47°39' W 122°23'.
Warning: this ship's position is 13 days out of date.

; draft 2.2 m.

Type: Dredging. MMSI: 367117140.

Date/timePositionNaut miles runAvg speedWind from/ knotsBaromVisibWave heightAir tempDewpointWater temp
2019-Oct-03 23:03N 47°39' W 122°23'0 0.0
2019-Oct-03 23:00N 47°39' W 122°23'1 2.1
2019-Oct-03 22:30N 47°40' W 122°24'1 1.6
2019-Oct-03 22:00N 47°41' W 122°25'0 0.1
2019-Oct-03 21:30N 47°41' W 122°25'1 2.2
2019-Oct-03 21:00N 47°42' W 122°25'2 3.5
2019-Oct-03 20:30N 47°44' W 122°25'1 1.1
2019-Oct-03 20:00N 47°43' W 122°25'1 2.4
2019-Oct-03 19:30N 47°44' W 122°25'3 6.2
2019-Oct-03 19:00N 47°41' W 122°25'1 1.7
2019-Oct-03 18:30N 47°40' W 122°25'0 0.2
2019-Oct-03 18:00N 47°40' W 122°25'1 1.2
2019-Oct-03 17:30N 47°41' W 122°25'0 0.0
2019-Oct-03 17:00N 47°41' W 122°25'0 0.0
2019-Oct-03 16:30N 47°41' W 122°25'0 0.0
2019-Oct-03 16:00N 47°41' W 122°25'0 0.0
2019-Oct-03 15:30N 47°41' W 122°25'0 0.0
2019-Oct-03 15:00N 47°41' W 122°25'0 0.0
2019-Oct-03 14:30N 47°41' W 122°25'0 0.0
2019-Oct-03 14:00N 47°41' W 122°25'0 0.0
2019-Oct-03 13:30N 47°41' W 122°25'0 0.0
2019-Oct-03 13:00N 47°41' W 122°25'0 0.0
2019-Oct-03 12:30N 47°41' W 122°25'0 0.0
2019-Oct-03 12:00N 47°41' W 122°25'0 0.0
2019-Oct-03 11:30N 47°41' W 122°25'0 0.0
2019-Oct-03 11:00N 47°41' W 122°25'0 0.0
2019-Oct-03 10:30N 47°41' W 122°25'0 0.0
2019-Oct-03 10:00N 47°41' W 122°25'0 0.0
2019-Oct-03 09:30N 47°41' W 122°25'0 0.0
2019-Oct-03 09:00N 47°41' W 122°25'0 0.0
2019-Oct-03 08:30N 47°41' W 122°25'0 0.0
2019-Oct-03 08:00N 47°41' W 122°25'0 0.0
2019-Oct-03 07:30N 47°41' W 122°25'0 0.0
2019-Oct-03 07:00N 47°41' W 122°25'0 0.0
2019-Oct-03 06:30N 47°41' W 122°25'0 0.0
2019-Oct-03 06:00N 47°41' W 122°25'0 0.0
2019-Oct-03 05:30N 47°41' W 122°25'0 0.0
2019-Oct-03 05:00N 47°41' W 122°25'0 0.0
2019-Oct-03 04:30N 47°41' W 122°25'0 0.0
2019-Oct-03 04:00N 47°41' W 122°25'0 0.0
2019-Oct-03 03:30N 47°41' W 122°25'0 0.0
2019-Oct-03 03:00N 47°41' W 122°25'0 0.0
2019-Oct-03 02:30N 47°41' W 122°25'0 0.0
2019-Oct-03 02:00N 47°41' W 122°25'0 0.0
2019-Oct-03 01:30N 47°41' W 122°25'0 0.0
2019-Oct-03 01:00N 47°41' W 122°25'0 0.0
2019-Oct-03 00:30N 47°41' W 122°25'0 0.0
2019-Oct-03 00:00N 47°41' W 122°25'1 1.1
2019-Oct-02 23:31N 47°40' W 122°25'0 0.1
2019-Oct-02 23:01N 47°40' W 122°25'0 0.3
2019-Oct-02 22:31N 47°40' W 122°25'0 0.2
2019-Oct-02 22:01N 47°40' W 122°25'0 0.2
2019-Oct-02 21:31N 47°40' W 122°25'0 0.1
2019-Oct-02 21:01N 47°40' W 122°25'3 5.6
2019-Oct-02 20:30N 47°43' W 122°25'1 2.5
2019-Oct-02 20:00N 47°44' W 122°25'2 3.1
2019-Oct-02 19:31N 47°43' W 122°25'2 3.4
2019-Oct-02 19:01N 47°45' W 122°25'1 1.9
2019-Oct-02 18:31N 47°44' W 122°25'0 0.9
2019-Oct-02 18:01N 47°43' W 122°25'2 3.1
2019-Oct-02 17:30N 47°45' W 122°25'2 4.2
2019-Oct-02 17:00N 47°43' W 122°25'2 3.2
2019-Oct-02 16:31N 47°44' W 122°25'1 1.4
2019-Oct-02 16:01N 47°44' W 122°25'3 5.2
2019-Oct-02 15:30N 47°41' W 122°25'0 0.8
2019-Oct-02 14:58N 47°41' W 122°25'0 0.0
2019-Oct-02 14:28N 47°41' W 122°25'0 0.0
2019-Oct-02 13:58N 47°41' W 122°25'0 0.0
2019-Oct-02 13:28N 47°41' W 122°25'0 0.0
2019-Oct-02 12:58N 47°41' W 122°25'0 0.0
2019-Oct-02 12:28N 47°41' W 122°25'0 0.0
2019-Oct-02 11:58N 47°41' W 122°25'0 0.0
2019-Oct-02 11:28N 47°41' W 122°25'0 0.0
2019-Oct-02 10:58N 47°41' W 122°25'0 0.0
2019-Oct-02 10:28N 47°41' W 122°25'0 0.0
2019-Oct-02 09:58N 47°41' W 122°25'0 0.0
2019-Oct-02 09:28N 47°41' W 122°25'0 0.0
2019-Oct-02 08:58N 47°41' W 122°25'0 0.0
2019-Oct-02 08:28N 47°41' W 122°25'0 0.0
2019-Oct-02 07:58N 47°41' W 122°25'0 0.0
2019-Oct-02 07:28N 47°41' W 122°25'0 0.0
2019-Oct-02 06:58N 47°41' W 122°25'0 0.0
2019-Oct-02 06:28N 47°41' W 122°25'0 0.0
2019-Oct-02 05:58N 47°41' W 122°25'0 0.0
2019-Oct-02 05:28N 47°41' W 122°25'0 0.0
2019-Oct-02 04:58N 47°41' W 122°25'0 0.0
2019-Oct-02 04:28N 47°41' W 122°25'0 0.0
2019-Oct-02 03:58N 47°41' W 122°25'0 0.0
2019-Oct-02 03:28N 47°41' W 122°25'0 0.0
2019-Oct-02 02:58N 47°41' W 122°25'0 0.0
2019-Oct-02 02:28N 47°41' W 122°25'0 0.0
2019-Oct-02 01:58N 47°41' W 122°25'0 0.0
2019-Oct-02 01:28N 47°41' W 122°25'0 0.0
2019-Oct-02 00:58N 47°41' W 122°25'1 1.4
2019-Oct-02 00:30N 47°41' W 122°25'2 4.2
2019-Oct-02 00:01N 47°43' W 122°25'1 1.3
2019-Oct-01 23:31N 47°43' W 122°25'2 3.5
2019-Oct-01 23:00N 47°44' W 122°25'1 1.7
2019-Oct-01 22:31N 47°44' W 122°25'0 0.4
2019-Oct-01 22:00N 47°43' W 122°25'1 2.7
2019-Oct-01 21:31N 47°45' W 122°25'2 3.3
2019-Oct-01 21:01N 47°43' W 122°25'1 1.7
2019-Oct-01 20:31N 47°44' W 122°25'1 2.1
2019-Oct-01 20:01N 47°45' W 122°24'2 4.1
2019-Oct-01 19:31N 47°43' W 122°25'1 2.0
2019-Oct-01 19:01N 47°44' W 122°25'0 0.3
2019-Oct-01 18:31N 47°44' W 122°25'1 1.6
2019-Oct-01 18:00N 47°43' W 122°25'2 3.1
2019-Oct-01 17:31N 47°45' W 122°25'3 5.6
2019-Oct-01 17:00N 47°42' W 122°25'1 2.6
2019-Oct-01 16:31N 47°41' W 122°25'1 1.9
2019-Oct-01 16:01N 47°40' W 122°24'1 1.8
2019-Oct-01 15:29N 47°39' W 122°23'0 0.0
2019-Oct-01 14:59N 47°39' W 122°23'0 0.0
2019-Oct-01 14:29N 47°39' W 122°23'  
Track history (hours):
 
Tides and Currents Weather Stations Pressure Air Temp Water Temp Dewpoint Dewpoint Depression Visibility Wind Speed Wind Dir Waves Ship Positions

Oceanographic research ship Golden Dolphin (USA)

Owner: ROSS LABORATORIES INC, SEATTLE, WA. More information available from US FCC via Universal Licensing System and Coast Guard Vessel Documentation Center.

Last reported at 2019-Oct-03 23:03 UTC. Time now 2019-Oct-17 15:09 UTC.
Position N 47°39' W 122°23'.
Warning: this ship's position is 13 days out of date.

; draft 2.2 m.

Type: Dredging. MMSI: 367117140.

Date/timePositionNaut miles runAvg speedWind from/ knotsBaromVisibWave heightAir tempDewpointWater temp
2019-Oct-03 23:03N 47°39' W 122°23'0 0.0
2019-Oct-03 23:00N 47°39' W 122°23'1 2.1
2019-Oct-03 22:30N 47°40' W 122°24'1 1.6
2019-Oct-03 22:00N 47°41' W 122°25'0 0.1
2019-Oct-03 21:30N 47°41' W 122°25'1 2.2
2019-Oct-03 21:00N 47°42' W 122°25'2 3.5
2019-Oct-03 20:30N 47°44' W 122°25'1 1.1
2019-Oct-03 20:00N 47°43' W 122°25'1 2.4
2019-Oct-03 19:30N 47°44' W 122°25'3 6.2
2019-Oct-03 19:00N 47°41' W 122°25'1 1.7
2019-Oct-03 18:30N 47°40' W 122°25'0 0.2
2019-Oct-03 18:00N 47°40' W 122°25'1 1.2
2019-Oct-03 17:30N 47°41' W 122°25'0 0.0
2019-Oct-03 17:00N 47°41' W 122°25'0 0.0
2019-Oct-03 16:30N 47°41' W 122°25'0 0.0
2019-Oct-03 16:00N 47°41' W 122°25'0 0.0
2019-Oct-03 15:30N 47°41' W 122°25'0 0.0
2019-Oct-03 15:00N 47°41' W 122°25'0 0.0
2019-Oct-03 14:30N 47°41' W 122°25'0 0.0
2019-Oct-03 14:00N 47°41' W 122°25'0 0.0
2019-Oct-03 13:30N 47°41' W 122°25'0 0.0
2019-Oct-03 13:00N 47°41' W 122°25'0 0.0
2019-Oct-03 12:30N 47°41' W 122°25'0 0.0
2019-Oct-03 12:00N 47°41' W 122°25'0 0.0
2019-Oct-03 11:30N 47°41' W 122°25'0 0.0
2019-Oct-03 11:00N 47°41' W 122°25'0 0.0
2019-Oct-03 10:30N 47°41' W 122°25'0 0.0
2019-Oct-03 10:00N 47°41' W 122°25'0 0.0
2019-Oct-03 09:30N 47°41' W 122°25'0 0.0
2019-Oct-03 09:00N 47°41' W 122°25'0 0.0
2019-Oct-03 08:30N 47°41' W 122°25'0 0.0
2019-Oct-03 08:00N 47°41' W 122°25'0 0.0
2019-Oct-03 07:30N 47°41' W 122°25'0 0.0
2019-Oct-03 07:00N 47°41' W 122°25'0 0.0
2019-Oct-03 06:30N 47°41' W 122°25'0 0.0
2019-Oct-03 06:00N 47°41' W 122°25'0 0.0
2019-Oct-03 05:30N 47°41' W 122°25'0 0.0
2019-Oct-03 05:00N 47°41' W 122°25'0 0.0
2019-Oct-03 04:30N 47°41' W 122°25'0 0.0
2019-Oct-03 04:00N 47°41' W 122°25'0 0.0
2019-Oct-03 03:30N 47°41' W 122°25'0 0.0
2019-Oct-03 03:00N 47°41' W 122°25'0 0.0
2019-Oct-03 02:30N 47°41' W 122°25'0 0.0
2019-Oct-03 02:00N 47°41' W 122°25'0 0.0
2019-Oct-03 01:30N 47°41' W 122°25'0 0.0
2019-Oct-03 01:00N 47°41' W 122°25'0 0.0
2019-Oct-03 00:30N 47°41' W 122°25'0 0.0
2019-Oct-03 00:00N 47°41' W 122°25'1 1.1
2019-Oct-02 23:31N 47°40' W 122°25'0 0.1
2019-Oct-02 23:01N 47°40' W 122°25'0 0.3
2019-Oct-02 22:31N 47°40' W 122°25'0 0.2
2019-Oct-02 22:01N 47°40' W 122°25'0 0.2
2019-Oct-02 21:31N 47°40' W 122°25'0 0.1
2019-Oct-02 21:01N 47°40' W 122°25'3 5.6
2019-Oct-02 20:30N 47°43' W 122°25'1 2.5
2019-Oct-02 20:00N 47°44' W 122°25'2 3.1
2019-Oct-02 19:31N 47°43' W 122°25'2 3.4
2019-Oct-02 19:01N 47°45' W 122°25'1 1.9
2019-Oct-02 18:31N 47°44' W 122°25'0 0.9
2019-Oct-02 18:01N 47°43' W 122°25'2 3.1
2019-Oct-02 17:30N 47°45' W 122°25'2 4.2
2019-Oct-02 17:00N 47°43' W 122°25'2 3.2
2019-Oct-02 16:31N 47°44' W 122°25'1 1.4
2019-Oct-02 16:01N 47°44' W 122°25'3 5.2
2019-Oct-02 15:30N 47°41' W 122°25'0 0.8
2019-Oct-02 14:58N 47°41' W 122°25'0 0.0
2019-Oct-02 14:28N 47°41' W 122°25'0 0.0
2019-Oct-02 13:58N 47°41' W 122°25'0 0.0
2019-Oct-02 13:28N 47°41' W 122°25'0 0.0
2019-Oct-02 12:58N 47°41' W 122°25'0 0.0
2019-Oct-02 12:28N 47°41' W 122°25'0 0.0
2019-Oct-02 11:58N 47°41' W 122°25'0 0.0
2019-Oct-02 11:28N 47°41' W 122°25'0 0.0
2019-Oct-02 10:58N 47°41' W 122°25'0 0.0
2019-Oct-02 10:28N 47°41' W 122°25'0 0.0
2019-Oct-02 09:58N 47°41' W 122°25'0 0.0
2019-Oct-02 09:28N 47°41' W 122°25'0 0.0
2019-Oct-02 08:58N 47°41' W 122°25'0 0.0
2019-Oct-02 08:28N 47°41' W 122°25'0 0.0
2019-Oct-02 07:58N 47°41' W 122°25'0 0.0
2019-Oct-02 07:28N 47°41' W 122°25'0 0.0
2019-Oct-02 06:58N 47°41' W 122°25'0 0.0
2019-Oct-02 06:28N 47°41' W 122°25'0 0.0
2019-Oct-02 05:58N 47°41' W 122°25'0 0.0
2019-Oct-02 05:28N 47°41' W 122°25'0 0.0
2019-Oct-02 04:58N 47°41' W 122°25'0 0.0
2019-Oct-02 04:28N 47°41' W 122°25'0 0.0
2019-Oct-02 03:58N 47°41' W 122°25'0 0.0
2019-Oct-02 03:28N 47°41' W 122°25'0 0.0
2019-Oct-02 02:58N 47°41' W 122°25'0 0.0
2019-Oct-02 02:28N 47°41' W 122°25'0 0.0
2019-Oct-02 01:58N 47°41' W 122°25'0 0.0
2019-Oct-02 01:28N 47°41' W 122°25'0 0.0
2019-Oct-02 00:58N 47°41' W 122°25'1 1.4
2019-Oct-02 00:30N 47°41' W 122°25'2 4.2
2019-Oct-02 00:01N 47°43' W 122°25'1 1.3
2019-Oct-01 23:31N 47°43' W 122°25'2 3.5
2019-Oct-01 23:00N 47°44' W 122°25'1 1.7
2019-Oct-01 22:31N 47°44' W 122°25'0 0.4
2019-Oct-01 22:00N 47°43' W 122°25'1 2.7
2019-Oct-01 21:31N 47°45' W 122°25'2 3.3
2019-Oct-01 21:01N 47°43' W 122°25'1 1.7
2019-Oct-01 20:31N 47°44' W 122°25'1 2.1
2019-Oct-01 20:01N 47°45' W 122°24'2 4.1
2019-Oct-01 19:31N 47°43' W 122°25'1 2.0
2019-Oct-01 19:01N 47°44' W 122°25'0 0.3
2019-Oct-01 18:31N 47°44' W 122°25'1 1.6
2019-Oct-01 18:00N 47°43' W 122°25'2 3.1
2019-Oct-01 17:31N 47°45' W 122°25'3 5.6
2019-Oct-01 17:00N 47°42' W 122°25'1 2.6
2019-Oct-01 16:31N 47°41' W 122°25'1 1.9
2019-Oct-01 16:01N 47°40' W 122°24'1 1.8
2019-Oct-01 15:29N 47°39' W 122°23'0 0.0
2019-Oct-01 14:59N 47°39' W 122°23'0 0.0
2019-Oct-01 14:29N 47°39' W 122°23'  

Dump ship's entire track history